仙台空港の過去48時間の天気

仙台空港 (Sendai)

現在時刻: 10/20 03:38 JST (10/19 18:38 UTC) 以下の時間は現地時間です。

過去48時間のMETAR気象情報
時間 風向 風速(m/s) 視程 気温(℃) 湿度(%) 気圧(hPa) 天気現象
19 21:00 西北西 2 10km以上 14 82 1019
19 20:00 西北西 2 10km以上 14 88 1019
19 19:00 西北西 2 10km以上 14 88 1019
19 18:00 北西 2 10km以上 15 82 1018
19 17:00 北西 2 10km以上 15 82 1018
19 16:00 北西 3 10km以上 16 77 1018
19 15:00 北北西 3 10km以上 16 72 1018
19 14:00 北西 3 10km以上 16 72 1018
19 13:00 北北西 3 10km以上 16 68 1018
19 12:00 北西 3 10km以上 15 72 1019
19 11:00 北北西 3 10km以上 15 72 1020
19 10:00 北西 4 10km以上 14 72 1020
19 09:00 4 10km以上 13 77 1020
19 08:00 北北西 3 10km以上 13 72 1020 弱い雨
19 07:00 北北西 4 10km以上 12 77 1020
19 06:00 北北西 3 10km以上 12 77 1019
19 05:30 北北西 3 10km以上 11 82 1019
18 21:00 不定 1 10km以上 13 82 1019
18 20:00 北西 1 10km以上 13 82 1019
18 19:00 不定 1 10km以上 14 77 1019
18 18:00 東南東 3 10km以上 16 59 1018
18 17:00 東南東 3 10km以上 16 59 1017
18 16:00 東南東 3 10km以上 17 55 1017
18 15:00 東南東 4 10km以上 17 55 1017
18 14:00 東南東 5 10km以上 17 59 1017
18 13:00 東南東 4 10km以上 17 59 1016
18 12:00 3 10km以上 17 55 1016
18 11:00 不定 2 10km以上 16 55 1017
18 10:00 2 10km以上 16 59 1017
18 09:00 3 10km以上 13 67 1018
18 08:00 3 10km以上 11 76 1018
18 07:00 北西 2 10km以上 10 87 1018
18 06:00 西 2 10km以上 7 100 1017
18 05:30 西 2 10km以上 7 100 1017
RJSS 191200Z 30003KT 260V320 9999 FEW030 SCT040 BKN060 14/11 Q1019
RJSS 191100Z 29004KT 9999 FEW030 SCT040 BKN050 14/12 Q1019
RJSS 191000Z 29004KT 270V340 9999 FEW020 SCT030 BKN040 14/12 Q1019
RJSS 190900Z 32004KT 9999 FEW020 SCT030 BKN040 15/12 Q1018
RJSS 190800Z 32003KT 9999 FEW020 SCT040 BKN070 15/12 Q1018
RJSS 190700Z 32005KT 9999 FEW030 BKN040 BKN060 16/12 Q1018
RJSS 190600Z 33006KT 9999 FEW030 BKN040 BKN060 16/11 Q1018
RJSS 190500Z 32005KT 9999 FEW030 BKN040 BKN050 16/11 Q1018
RJSS 190400Z 33006KT 9999 FEW030 BKN040 BKN050 16/10 Q1018
RJSS 190300Z 32005KT 9999 FEW025 BKN040 BKN050 15/10 Q1019
RJSS 190200Z 33005KT 9999 FEW025 BKN040 15/10 Q1020
RJSS 190100Z 31007KT 9999 FEW030 BKN040 14/09 Q1020
RJSS 190000Z 35007KT 9999 FEW030 BKN040 BKN060 13/09 Q1020
RJSS 182300Z 33006KT 9999 -RA FEW030 BKN040 BKN060 13/08 Q1020
RJSS 182200Z 33007KT 9999 FEW020 BKN040 BKN060 12/08 Q1020
RJSS 182100Z 34005KT 9999 FEW020 SCT040 BKN050 12/08 Q1019
RJSS 182030Z 34006KT 9999 FEW030 BKN050 11/08 Q1019 RMK 2SC030 6SC050 A3010
RJSS 181200Z VRB02KT 9999 FEW030 BKN040 BKN/// 13/10 Q1019
RJSS 181100Z 31002KT 9999 FEW020 SCT040 BKN180 13/10 Q1019
RJSS 181000Z VRB02KT 9999 FEW050 SCT180 BKN/// 14/10 Q1019
RJSS 180900Z 12005KT 9999 FEW030 SCT180 BKN/// 16/08 Q1018
RJSS 180800Z 11006KT 9999 FEW020 SCT180 BKN/// 16/08 Q1017
RJSS 180700Z 12005KT 080V150 9999 FEW020 BKN/// 17/08 Q1017
RJSS 180600Z 12007KT 090V150 9999 FEW020 BKN/// 17/08 Q1017
RJSS 180500Z 12009KT 9999 FEW020 BKN/// 17/09 Q1017
RJSS 180400Z 11008KT 070V160 9999 FEW030 SCT/// 17/09 Q1016
RJSS 180300Z 09006KT 050V120 9999 FEW020 17/08 Q1016
RJSS 180200Z VRB03KT 9999 FEW020 SCT/// 16/07 Q1017
RJSS 180100Z 36004KT 300V070 9999 FEW008 16/08 Q1017
RJSS 180000Z 35006KT 310V020 9999 FEW008 13/07 Q1018
RJSS 172300Z 35006KT 9999 FEW004 11/07 Q1018
RJSS 172200Z 31004KT 9999 FEW003 10/08 Q1018
RJSS 172100Z 28004KT 9999 FEW004 SCT030 07/07 Q1017
RJSS 172030Z 28003KT 9999 FEW004 SCT/// 07/07 Q1017 RMK 1ST004 A3004